Time;durP1;ratioP1;P1;durP2;ratioP2;P2;SDS_P1;SDS_P2;PMS_P1;PMS_P2;Temp;Humidity;BMP_temperature;BMP_pressure;BME280_temperature;BME280_humidity;BME280_pressure;Samples;Min_cycle;Max_cycle;Signal;HPM_P1;HPM_P2
2022/07/19 00:00:38;;;;;;;6.23;2.60;;;27.10;48.20;;;;;;5126757;27;20382;-88
2022/07/19 00:03:20;;;;;;;2.57;2.33;;;27.00;48.00;;;;;;5092305;27;20588;-88
2022/07/19 00:06:12;;;;;;;2.70;2.20;;;26.90;48.00;;;;;;5115195;27;20411;-88
2022/07/19 00:08:38;;;;;;;5.40;2.40;;;26.90;48.30;;;;;;5113782;27;20558;-88
2022/07/19 00:11:03;;;;;;;3.80;2.50;;;26.80;48.30;;;;;;5115682;27;20174;-88
2022/07/19 00:13:29;;;;;;;4.20;2.20;;;26.70;48.30;;;;;;5128628;27;20260;-87
2022/07/19 00:16:26;;;;;;;5.43;2.37;;;26.70;48.30;;;;;;5108310;27;20531;-88
2022/07/19 00:22:14;;;;;;;3.80;2.50;;;26.60;48.50;;;;;;5129878;27;20459;-88
2022/07/19 00:31:49;;;;;;;4.43;2.80;;;26.70;48.40;;;;;;5120719;27;20429;-88
2022/07/19 00:34:15;;;;;;;3.13;2.23;;;26.70;48.30;;;;;;5061833;27;20309;-88
2022/07/19 00:36:41;;;;;;;3.77;2.10;;;26.80;48.30;;;;;;5103200;27;20196;-88
2022/07/19 00:39:07;;;;;;;2.63;2.40;;;26.80;48.30;;;;;;5112641;27;20201;-88
2022/07/19 00:41:40;;;;;;;3.50;2.30;;;26.80;48.60;;;;;;5100975;28;20220;-88
2022/07/19 00:44:06;;;;;;;3.27;2.40;;;26.70;48.70;;;;;;5100638;28;20185;-88
2022/07/19 00:46:32;;;;;;;2.60;2.03;;;26.60;48.50;;;;;;5093309;28;20181;-88
2022/07/19 00:48:58;;;;;;;2.30;2.10;;;26.70;48.50;;;;;;5089027;28;20181;-88
2022/07/19 00:51:24;;;;;;;3.30;2.17;;;26.60;48.60;;;;;;5096548;28;20500;-88
2022/07/19 00:53:52;;;;;;;4.07;2.30;;;26.50;48.50;;;;;;5100520;28;20758;-88
2022/07/19 00:56:19;;;;;;;2.40;2.20;;;26.40;48.70;;;;;;5100687;28;20177;-88
2022/07/19 01:02:38;;;;;;;3.40;2.20;;;26.40;48.70;;;;;;5125117;28;20469;-88
2022/07/19 01:05:09;;;;;;;2.90;2.50;;;26.50;48.60;;;;;;5114416;28;20174;-88
2022/07/19 01:10:56;;;;;;;2.50;2.10;;;26.50;48.50;;;;;;5126450;28;20330;-88
2022/07/19 01:13:22;;;;;;;3.90;2.30;;;26.50;48.50;;;;;;5104045;27;20291;-88
2022/07/19 01:15:48;;;;;;;2.30;2.10;;;26.50;48.50;;;;;;5103480;27;20208;-88
2022/07/19 01:18:15;;;;;;;2.57;2.10;;;26.50;48.50;;;;;;5104582;27;20433;-88
2022/07/19 01:20:41;;;;;;;3.70;2.40;;;26.50;48.40;;;;;;5090198;27;20286;-88
2022/07/19 01:23:19;;;;;;;3.50;2.27;;;26.50;48.40;;;;;;5111473;27;20173;-88
2022/07/19 01:25:45;;;;;;;3.33;2.10;;;26.50;48.40;;;;;;5100728;27;20599;-88
2022/07/19 01:28:10;;;;;;;3.37;2.20;;;26.50;48.40;;;;;;5119905;27;20654;-88
2022/07/19 01:34:08;;;;;;;2.87;2.17;;;26.50;48.30;;;;;;5109721;27;20265;-88
2022/07/19 01:36:35;;;;;;;3.80;2.60;;;26.50;48.40;;;;;;5096745;27;20636;-88
2022/07/19 01:39:04;;;;;;;2.80;2.47;;;26.50;48.40;;;;;;5080578;27;20839;-88
2022/07/19 01:41:31;;;;;;;2.57;2.37;;;26.40;48.40;;;;;;5107598;27;20734;-88
2022/07/19 01:44:07;;;;;;;2.30;2.10;;;26.40;48.50;;;;;;5104835;27;20558;-88
2022/07/19 01:46:34;;;;;;;2.50;2.30;;;26.40;48.50;;;;;;5099893;27;20185;-88
2022/07/19 01:49:09;;;;;;;2.40;2.20;;;26.40;48.50;;;;;;5099019;27;20548;-88
2022/07/19 01:51:36;;;;;;;2.50;2.30;;;26.40;48.50;;;;;;5104656;27;20280;-88
2022/07/19 01:54:02;;;;;;;2.50;1.90;;;26.40;48.50;;;;;;5119443;27;20193;-88
2022/07/19 01:56:28;;;;;;;2.90;2.20;;;26.40;48.50;;;;;;5078268;27;20181;-88
2022/07/19 01:58:54;;;;;;;2.60;2.40;;;26.40;48.60;;;;;;5103824;27;20211;-88
2022/07/19 02:02:01;;;;;;;2.43;2.20;;;26.30;48.80;;;;;;5083090;27;20473;-88
2022/07/19 02:07:48;;;;;;;3.40;2.67;;;26.30;48.80;;;;;;5105807;27;20577;-88
2022/07/19 02:10:15;;;;;;;2.30;2.10;;;26.30;48.70;;;;;;5105531;27;20173;-88
2022/07/19 02:12:41;;;;;;;5.10;2.20;;;26.30;48.70;;;;;;5120929;27;20181;-88
2022/07/19 02:15:08;;;;;;;3.30;2.13;;;26.30;48.80;;;;;;5121457;27;20610;-88
2022/07/19 02:17:34;;;;;;;2.20;2.00;;;26.20;48.70;;;;;;5121625;27;20177;-88
2022/07/19 02:20:00;;;;;;;2.30;2.10;;;26.20;48.70;;;;;;5121103;27;20511;-88
2022/07/19 02:22:27;;;;;;;3.23;2.03;;;26.20;48.80;;;;;;5121472;27;20170;-88
2022/07/19 02:24:52;;;;;;;2.40;2.20;;;26.20;48.80;;;;;;5121002;27;20205;-88
2022/07/19 02:27:19;;;;;;;3.50;2.27;;;26.20;48.90;;;;;;5121049;27;20211;-88
2022/07/19 02:29:45;;;;;;;2.00;1.90;;;26.20;48.90;;;;;;5121347;27;20185;-88
2022/07/19 02:32:11;;;;;;;2.30;2.10;;;26.20;49.00;;;;;;5121326;27;20189;-87
2022/07/19 02:34:37;;;;;;;2.50;2.30;;;26.10;49.00;;;;;;5121207;27;20205;-88
2022/07/19 02:37:03;;;;;;;3.57;2.60;;;26.10;49.00;;;;;;5120983;27;20174;-88
2022/07/19 02:39:29;;;;;;;2.77;2.00;;;26.10;49.10;;;;;;5121308;27;20205;-88
2022/07/19 02:41:55;;;;;;;2.57;2.37;;;26.00;49.10;;;;;;5121212;27;20223;-88
2022/07/19 02:44:20;;;;;;;2.83;2.00;;;26.10;49.20;;;;;;5121150;27;20535;-87
2022/07/19 02:46:47;;;;;;;3.27;2.27;;;26.00;49.20;;;;;;5120730;27;20185;-88
2022/07/19 02:49:13;;;;;;;3.20;2.37;;;26.00;49.20;;;;;;5138664;27;20169;-88
2022/07/19 02:51:39;;;;;;;2.33;2.13;;;26.00;49.10;;;;;;5120772;27;20451;-88
2022/07/19 02:54:04;;;;;;;2.80;2.37;;;26.00;49.10;;;;;;5120246;27;20220;-88
2022/07/19 02:56:30;;;;;;;2.50;2.20;;;25.90;49.30;;;;;;5119987;27;20177;-88
2022/07/19 02:59:06;;;;;;;3.40;2.37;;;25.80;49.40;;;;;;5120918;27;20176;-88
2022/07/19 03:01:32;;;;;;;2.67;2.33;;;25.80;49.50;;;;;;5138464;27;20177;-88
2022/07/19 03:03:59;;;;;;;2.60;2.40;;;25.70;49.40;;;;;;5120307;27;20177;-88
2022/07/19 03:06:25;;;;;;;2.87;2.30;;;25.70;49.30;;;;;;5120877;27;20571;-88
2022/07/19 03:08:52;;;;;;;2.70;2.17;;;25.80;49.40;;;;;;5137600;27;20172;-88
2022/07/19 03:11:17;;;;;;;5.33;2.50;;;25.80;49.70;;;;;;5119477;27;20173;-88
2022/07/19 03:13:43;;;;;;;2.70;2.03;;;25.80;49.30;;;;;;5120041;27;20222;-88
2022/07/19 03:16:09;;;;;;;2.50;2.00;;;25.80;49.20;;;;;;5119572;27;20173;-88
2022/07/19 03:18:35;;;;;;;2.77;2.03;;;25.80;49.20;;;;;;5119095;27;20650;-88
2022/07/19 03:21:01;;;;;;;2.47;2.23;;;25.80;49.20;;;;;;5119882;27;20180;-88
2022/07/19 03:23:35;;;;;;;2.43;2.13;;;25.80;49.20;;;;;;5120014;27;20165;-88
2022/07/19 03:26:01;;;;;;;2.83;2.10;;;25.80;49.20;;;;;;5120069;27;20178;-87
2022/07/19 03:28:27;;;;;;;2.33;2.13;;;25.80;49.30;;;;;;5119113;27;20285;-88
2022/07/19 03:30:52;;;;;;;4.20;2.20;;;25.80;49.30;;;;;;5118972;27;20253;-88
2022/07/19 03:33:18;;;;;;;2.30;2.00;;;25.80;49.30;;;;;;5118324;27;20166;-88
2022/07/19 03:38:30;;;;;;;4.03;2.37;;;25.70;49.20;;;;;;5139174;27;20177;-88
2022/07/19 03:40:55;;;;;;;2.40;2.20;;;25.70;49.30;;;;;;5136637;27;20166;-88
2022/07/19 03:43:23;;;;;;;2.63;2.30;;;25.70;49.30;;;;;;5118577;27;20216;-88
2022/07/19 03:45:49;;;;;;;2.77;2.40;;;25.70;49.30;;;;;;5119606;27;20275;-88
2022/07/19 03:48:14;;;;;;;3.30;2.40;;;25.70;49.30;;;;;;5136706;27;20208;-87
2022/07/19 03:50:40;;;;;;;2.60;2.27;;;25.70;49.40;;;;;;5119005;27;20230;-88
2022/07/19 03:53:06;;;;;;;2.40;2.20;;;25.70;49.40;;;;;;5117960;27;20182;-88
2022/07/19 03:55:33;;;;;;;2.93;2.20;;;25.70;49.40;;;;;;5118138;27;20216;-88
2022/07/19 03:57:59;;;;;;;2.43;2.20;;;25.70;49.50;;;;;;5118161;27;20201;-88
2022/07/19 04:00:25;;;;;;;2.47;1.97;;;25.70;49.50;;;;;;5118551;27;20211;-88
2022/07/19 04:02:50;;;;;;;2.50;2.30;;;25.60;49.50;;;;;;5118339;27;20182;-88
2022/07/19 04:05:16;;;;;;;2.60;2.30;;;25.60;49.40;;;;;;5118004;27;20178;-88
2022/07/19 04:07:42;;;;;;;2.47;2.17;;;25.60;49.40;;;;;;5117104;27;20174;-88
2022/07/19 04:10:08;;;;;;;3.00;2.07;;;25.60;49.60;;;;;;5117763;27;20174;-88
2022/07/19 04:12:37;;;;;;;2.47;2.20;;;25.60;49.60;;;;;;5136486;27;20212;-88
2022/07/19 04:15:03;;;;;;;2.57;2.20;;;25.50;49.50;;;;;;5116998;27;20209;-88
2022/07/19 04:17:29;;;;;;;2.40;2.20;;;25.50;49.40;;;;;;5117797;27;20184;-88
2022/07/19 04:19:55;;;;;;;2.23;1.93;;;25.50;49.50;;;;;;5117618;27;20169;-87
2022/07/19 04:22:23;;;;;;;2.80;2.00;;;25.60;49.50;;;;;;5117845;27;20170;-87
2022/07/19 04:24:50;;;;;;;3.70;2.00;;;25.50;49.60;;;;;;5118217;27;20169;-88
2022/07/19 04:27:16;;;;;;;2.40;2.20;;;25.50;49.60;;;;;;5134859;27;20169;-88
2022/07/19 04:29:42;;;;;;;2.30;2.10;;;25.50;49.60;;;;;;5116186;27;20180;-88
2022/07/19 04:32:08;;;;;;;4.57;2.10;;;25.50;49.70;;;;;;5117892;27;20169;-88
2022/07/19 04:34:34;;;;;;;3.17;2.43;;;25.50;49.80;;;;;;5117299;27;20226;-88
2022/07/19 04:36:59;;;;;;;2.60;2.10;;;25.50;49.60;;;;;;5134651;27;20161;-88
2022/07/19 04:39:25;;;;;;;2.40;2.20;;;25.50;49.70;;;;;;5117126;28;20170;-87
2022/07/19 04:41:51;;;;;;;3.80;2.30;;;25.50;49.60;;;;;;5117602;27;20474;-88
2022/07/19 04:44:17;;;;;;;2.20;1.90;;;25.60;49.90;;;;;;5116519;28;20169;-88
2022/07/19 04:46:42;;;;;;;2.33;2.13;;;25.60;49.90;;;;;;5116916;28;20184;-88
2022/07/19 04:49:08;;;;;;;2.73;2.33;;;25.60;49.80;;;;;;5140153;27;20218;-88
2022/07/19 04:51:34;;;;;;;2.27;2.07;;;25.60;49.70;;;;;;5140818;27;20172;-88
2022/07/19 04:54:00;;;;;;;4.37;2.40;;;25.70;49.60;;;;;;5122623;27;20201;-88
2022/07/19 04:56:25;;;;;;;3.53;2.30;;;25.70;49.80;;;;;;5141109;27;20157;-88
2022/07/19 04:58:51;;;;;;;2.90;2.60;;;25.70;49.80;;;;;;5123071;27;20165;-88
2022/07/19 05:01:17;;;;;;;2.90;2.40;;;25.70;49.80;;;;;;5123563;27;20230;-90
2022/07/19 05:03:43;;;;;;;5.10;2.50;;;25.80;49.70;;;;;;5140919;27;20438;-88
2022/07/19 05:06:09;;;;;;;4.03;2.67;;;25.80;50.00;;;;;;5122819;27;20169;-88
2022/07/19 05:08:34;;;;;;;3.77;2.30;;;25.80;50.00;;;;;;5123045;27;20173;-88
2022/07/19 05:11:00;;;;;;;3.63;2.33;;;25.90;49.70;;;;;;5122122;27;20165;-88
2022/07/19 05:13:26;;;;;;;2.57;2.33;;;25.90;49.80;;;;;;5122893;27;20166;-88
2022/07/19 05:15:52;;;;;;;3.17;2.37;;;26.00;49.80;;;;;;5123307;27;20207;-88
2022/07/19 05:18:18;;;;;;;2.60;2.40;;;26.00;49.80;;;;;;5122743;27;20543;-88
2022/07/19 05:20:44;;;;;;;3.27;2.80;;;26.10;49.80;;;;;;5122504;27;20197;-88
2022/07/19 05:23:10;;;;;;;4.23;2.10;;;26.10;49.70;;;;;;5122466;27;20199;-88
2022/07/19 05:25:35;;;;;;;2.93;2.43;;;26.10;49.80;;;;;;5139758;27;20169;-88
2022/07/19 05:28:01;;;;;;;2.87;2.43;;;26.20;50.00;;;;;;5121944;27;20181;-88
2022/07/19 05:30:27;;;;;;;2.70;2.10;;;26.30;49.40;;;;;;5139484;27;20199;-90
2022/07/19 05:32:53;;;;;;;2.50;2.30;;;26.30;49.80;;;;;;5122833;27;20178;-89
2022/07/19 05:35:19;;;;;;;2.50;2.30;;;26.40;50.20;;;;;;5121477;27;20219;-89
2022/07/19 05:37:45;;;;;;;2.63;2.43;;;26.50;50.50;;;;;;5122254;27;20405;-89
2022/07/19 05:40:10;;;;;;;2.77;2.33;;;26.50;49.30;;;;;;5121973;27;20439;-89
2022/07/19 05:42:36;;;;;;;2.63;2.43;;;26.70;48.90;;;;;;5119402;27;20706;-90
2022/07/19 05:45:02;;;;;;;2.70;2.33;;;26.70;48.70;;;;;;5140303;27;20169;-89
2022/07/19 05:47:29;;;;;;;3.23;2.23;;;26.80;48.50;;;;;;5121285;27;20170;-90
2022/07/19 05:49:56;;;;;;;2.20;2.00;;;26.90;48.40;;;;;;5122509;27;20195;-89
2022/07/19 05:52:21;;;;;;;3.00;2.20;;;27.00;48.30;;;;;;5121972;27;20169;-89
2022/07/19 05:54:47;;;;;;;2.57;2.37;;;27.10;48.20;;;;;;5121903;27;20313;-89
2022/07/19 05:57:13;;;;;;;2.57;2.37;;;27.20;48.10;;;;;;5122031;27;20173;-89
2022/07/19 05:59:39;;;;;;;3.20;2.03;;;27.30;48.00;;;;;;5118796;27;20252;-89
2022/07/19 06:02:04;;;;;;;2.90;2.40;;;27.40;47.90;;;;;;5119323;27;20441;-90
2022/07/19 06:04:30;;;;;;;2.87;2.07;;;27.40;47.80;;;;;;5119010;27;20169;-89
2022/07/19 06:06:56;;;;;;;3.57;2.30;;;27.60;47.80;;;;;;5118787;27;20209;-89
2022/07/19 06:09:22;;;;;;;5.87;2.40;;;27.60;47.60;;;;;;5117578;27;20304;-89
2022/07/19 06:11:49;;;;;;;2.80;2.20;;;27.80;47.60;;;;;;5116662;27;20435;-89
2022/07/19 06:14:14;;;;;;;2.40;2.20;;;27.90;47.50;;;;;;5117185;27;20205;-90
2022/07/19 06:16:40;;;;;;;3.60;2.30;;;28.10;47.40;;;;;;5118086;27;20565;-90
2022/07/19 06:19:07;;;;;;;2.80;2.50;;;28.20;47.30;;;;;;5117034;27;20174;-89
2022/07/19 06:21:33;;;;;;;6.57;2.30;;;28.30;47.20;;;;;;5117166;27;20176;-89
2022/07/19 06:23:59;;;;;;;5.80;2.33;;;28.40;47.10;;;;;;5117230;27;20169;-89
2022/07/19 06:26:28;;;;;;;3.00;2.50;;;28.50;47.00;;;;;;5135846;27;20267;-89
2022/07/19 06:28:55;;;;;;;3.50;2.33;;;28.70;46.90;;;;;;5116509;27;20169;-89
2022/07/19 06:31:21;;;;;;;3.27;2.20;;;28.80;46.80;;;;;;5117159;27;20272;-89
2022/07/19 06:33:49;;;;;;;4.23;2.33;;;28.90;46.70;;;;;;5116768;27;20264;-89
2022/07/19 06:36:16;;;;;;;3.00;2.40;;;29.10;46.70;;;;;;5116709;27;20271;-89
2022/07/19 06:38:42;;;;;;;2.90;2.07;;;29.20;46.70;;;;;;5134984;27;20166;-89
2022/07/19 06:41:09;;;;;;;3.10;2.35;;;29.30;46.60;;;;;;5116493;27;20196;-89
2022/07/19 06:43:35;;;;;;;2.37;2.07;;;29.40;46.50;;;;;;5116641;27;20172;-89
2022/07/19 06:46:01;;;;;;;3.50;2.30;;;29.50;46.50;;;;;;5116685;27;20173;-89
2022/07/19 06:48:27;;;;;;;2.95;2.30;;;29.60;46.40;;;;;;5116378;27;20177;-89
2022/07/19 06:50:53;;;;;;;3.27;2.27;;;29.70;46.40;;;;;;5133867;27;20500;-89
2022/07/19 06:53:19;;;;;;;4.20;2.60;;;29.80;46.20;;;;;;5115546;27;20258;-89
2022/07/19 06:55:45;;;;;;;4.57;2.60;;;30.00;46.20;;;;;;5116000;27;20268;-89
2022/07/19 06:58:11;;;;;;;4.68;2.50;;;30.10;46.00;;;;;;5133794;27;20471;-89
2022/07/19 07:00:37;;;;;;;5.90;2.78;;;30.30;46.00;;;;;;5134377;27;20201;-89
2022/07/19 07:03:03;;;;;;;4.00;2.60;;;30.50;45.90;;;;;;5116491;27;20204;-89
2022/07/19 07:05:29;;;;;;;5.35;2.58;;;30.60;45.80;;;;;;5117007;27;20273;-89
2022/07/19 07:07:55;;;;;;;6.32;2.80;;;30.90;45.70;;;;;;5133735;27;20181;-87
2022/07/19 07:10:20;;;;;;;6.13;2.70;;;31.30;45.50;;;;;;5114936;27;20196;-87
2022/07/19 07:12:46;;;;;;;4.32;2.72;;;31.80;45.20;;;;;;5114373;27;20623;-87
2022/07/19 07:15:12;;;;;;;4.03;2.50;;;32.40;44.80;;;;;;5115625;27;20197;-87
2022/07/19 07:17:38;;;;;;;4.13;2.50;;;32.90;44.30;;;;;;5115291;27;20457;-86
2022/07/19 07:20:06;;;;;;;5.68;2.60;;;33.40;43.90;;;;;;5133966;27;20177;-87
2022/07/19 07:22:33;;;;;;;4.13;2.50;;;33.80;43.50;;;;;;5114718;27;20230;-87
2022/07/19 07:24:59;;;;;;;7.97;2.80;;;34.20;43.20;;;;;;5133637;27;20161;-87
2022/07/19 07:27:25;;;;;;;4.05;3.00;;;34.50;42.90;;;;;;5114481;27;20180;-87
2022/07/19 07:29:51;;;;;;;3.47;2.70;;;34.80;42.70;;;;;;5114648;27;20356;-87
2022/07/19 07:32:17;;;;;;;5.00;2.65;;;35.10;42.40;;;;;;5114513;27;20169;-87
2022/07/19 07:34:43;;;;;;;3.47;2.55;;;35.40;42.30;;;;;;5133280;27;20319;-87
2022/07/19 07:37:09;;;;;;;4.65;2.70;;;35.50;42.10;;;;;;5115337;27;20173;-87
2022/07/19 07:39:36;;;;;;;5.15;2.70;;;35.80;42.00;;;;;;5114561;27;20173;-87
2022/07/19 07:42:03;;;;;;;4.70;2.80;;;36.00;42.00;;;;;;5114154;27;20409;-87
2022/07/19 07:44:29;;;;;;;3.30;2.70;;;36.10;41.60;;;;;;5133587;27;20165;-87
2022/07/19 07:46:55;;;;;;;4.93;2.83;;;36.30;41.70;;;;;;5112768;27;20471;-87
2022/07/19 07:49:21;;;;;;;5.32;2.80;;;36.40;41.50;;;;;;5097048;27;20559;-87
2022/07/19 07:51:47;;;;;;;4.60;3.03;;;36.50;41.30;;;;;;5114657;27;20705;-86
2022/07/19 07:54:12;;;;;;;3.42;2.67;;;36.60;41.40;;;;;;5113416;27;20460;-86
2022/07/19 07:56:38;;;;;;;4.80;3.20;;;36.80;41.50;;;;;;5132209;27;20166;-87
2022/07/19 07:59:04;;;;;;;5.30;2.72;;;37.10;41.10;;;;;;5114387;27;20197;-87
2022/07/19 08:01:30;;;;;;;5.15;2.90;;;37.20;40.20;;;;;;5114194;27;20165;-87
2022/07/19 08:03:57;;;;;;;4.13;2.90;;;37.50;39.60;;;;;;5131645;27;20160;-87
2022/07/19 08:06:22;;;;;;;5.50;2.60;;;37.70;39.60;;;;;;5113903;27;20173;-88
2022/07/19 08:08:48;;;;;;;4.30;2.58;;;37.90;39.20;;;;;;5113894;27;20169;-87
2022/07/19 08:11:14;;;;;;;4.18;2.70;;;38.00;38.70;;;;;;5113193;27;20798;-87
2022/07/19 08:13:40;;;;;;;3.33;2.83;;;38.10;38.80;;;;;;5113704;27;20166;-87
2022/07/19 08:16:06;;;;;;;3.25;2.95;;;38.10;38.30;;;;;;5113432;27;20197;-87
2022/07/19 08:18:33;;;;;;;3.85;2.70;;;38.20;37.90;;;;;;5113915;27;20166;-87
2022/07/19 08:20:59;;;;;;;3.97;2.90;;;38.30;38.10;;;;;;5112777;27;20170;-88
2022/07/19 08:23:24;;;;;;;5.15;3.05;;;38.50;38.00;;;;;;5112484;27;20681;-87
2022/07/19 08:25:50;;;;;;;3.63;2.70;;;38.50;38.00;;;;;;5113670;27;20413;-87
2022/07/19 08:28:16;;;;;;;6.47;2.72;;;38.50;38.00;;;;;;5112648;27;20173;-87
2022/07/19 08:30:42;;;;;;;4.97;2.70;;;38.50;37.90;;;;;;5129570;27;20177;-87
2022/07/19 08:33:09;;;;;;;4.07;2.65;;;38.70;37.80;;;;;;5113512;27;20405;-87
2022/07/19 08:35:36;;;;;;;3.30;2.70;;;38.70;37.80;;;;;;5130902;27;20265;-87
2022/07/19 08:38:02;;;;;;;3.45;2.67;;;38.70;37.70;;;;;;5112407;27;20161;-87
2022/07/19 08:40:30;;;;;;;5.22;2.88;;;38.80;37.80;;;;;;5113365;28;20642;-87
2022/07/19 08:42:57;;;;;;;3.50;2.53;;;38.80;37.80;;;;;;5113265;28;20200;-87
2022/07/19 08:45:23;;;;;;;4.68;2.67;;;38.90;37.60;;;;;;5112104;28;20377;-87
2022/07/19 08:47:49;;;;;;;2.70;2.50;;;38.90;37.60;;;;;;5113214;28;20264;-87
2022/07/19 08:50:15;;;;;;;3.00;2.65;;;39.00;37.70;;;;;;5112197;28;20181;-84
2022/07/19 08:52:41;;;;;;;3.25;2.60;;;39.00;37.30;;;;;;5111784;28;20312;-84
2022/07/19 08:55:09;;;;;;;3.22;2.85;;;39.20;37.50;;;;;;5111957;28;20235;-85
2022/07/19 09:00:20;;;;;;;4.07;2.78;;;39.30;37.30;;;;;;5129347;28;20446;-85
2022/07/19 09:02:58;;;;;;;5.22;2.88;;;39.40;37.00;;;;;;5112078;28;20174;-84
2022/07/19 09:05:25;;;;;;;5.25;2.90;;;39.40;37.00;;;;;;5112025;28;20261;-85
2022/07/19 09:08:09;;;;;;;5.40;2.60;;;39.30;36.60;;;;;;5112214;28;20184;-85
2022/07/19 09:10:39;;;;;;;3.75;2.67;;;39.40;36.70;;;;;;5111858;28;20201;-85
2022/07/19 09:13:10;;;;;;;2.70;2.50;;;39.40;36.80;;;;;;5129559;28;20643;-85
2022/07/19 09:15:49;;;;;;;3.72;2.70;;;39.30;36.70;;;;;;5111277;28;20211;-84
2022/07/19 09:18:41;;;;;;;3.67;2.60;;;39.10;36.90;;;;;;5110317;28;20197;-87
2022/07/19 09:21:07;;;;;;;4.32;2.70;;;38.60;37.20;;;;;;5106045;28;20174;-85
2022/07/19 09:23:33;;;;;;;2.92;2.63;;;38.20;36.40;;;;;;5110956;28;20174;-85
2022/07/19 09:26:04;;;;;;;4.40;2.80;;;37.80;37.10;;;;;;5110428;28;20170;-84
2022/07/19 09:28:34;;;;;;;4.25;2.65;;;37.40;37.50;;;;;;5129139;28;20520;-84
2022/07/19 09:31:02;;;;;;;3.03;2.50;;;37.00;37.40;;;;;;5110832;28;20170;-84
2022/07/19 09:33:30;;;;;;;3.85;2.60;;;36.70;37.30;;;;;;5111312;27;20177;-85
2022/07/19 09:36:01;;;;;;;4.80;2.60;;;36.60;36.70;;;;;;5113444;27;20497;-84
2022/07/19 09:38:35;;;;;;;3.10;2.65;;;36.50;37.40;;;;;;5115847;27;20363;-84
2022/07/19 09:41:07;;;;;;;3.50;2.47;;;36.20;37.30;;;;;;5115455;27;20260;-85
2022/07/19 09:43:58;;;;;;;3.70;2.50;;;36.10;37.60;;;;;;5116014;27;20184;-85
2022/07/19 09:46:38;;;;;;;3.95;2.53;;;36.00;37.60;;;;;;5100614;27;20510;-84
2022/07/19 09:49:09;;;;;;;2.47;2.28;;;35.90;37.70;;;;;;5114693;27;20245;-84
2022/07/19 09:51:37;;;;;;;4.05;2.53;;;35.80;37.70;;;;;;5115833;27;20203;-84
2022/07/19 09:54:05;;;;;;;2.47;2.28;;;35.80;37.40;;;;;;5115043;27;20169;-85
2022/07/19 09:56:31;;;;;;;3.47;2.45;;;35.70;37.80;;;;;;5115197;27;20543;-84
2022/07/19 09:58:58;;;;;;;6.65;2.70;;;35.70;37.40;;;;;;5114916;27;20169;-84
2022/07/19 10:01:25;;;;;;;3.03;2.50;;;35.60;37.10;;;;;;5113635;27;20166;-84
2022/07/19 10:03:58;;;;;;;4.10;2.28;;;35.60;37.30;;;;;;5115105;27;20735;-84
2022/07/19 10:06:25;;;;;;;4.75;2.55;;;35.60;37.00;;;;;;5114205;27;20170;-84
2022/07/19 10:08:54;;;;;;;4.85;2.53;;;35.70;36.60;;;;;;5115020;27;20166;-84
2022/07/19 10:11:21;;;;;;;3.25;2.30;;;35.70;37.00;;;;;;5115387;27;20177;-84
2022/07/19 10:13:49;;;;;;;2.40;2.20;;;35.70;37.60;;;;;;5132515;27;20201;-84
2022/07/19 10:16:21;;;;;;;3.47;2.50;;;35.60;37.80;;;;;;5131773;27;20166;-85
2022/07/19 10:19:17;;;;;;;3.15;2.50;;;35.50;37.90;;;;;;5113753;27;20170;-84
2022/07/19 10:21:45;;;;;;;2.60;2.40;;;35.50;38.00;;;;;;5112847;27;20161;-84
2022/07/19 10:24:10;;;;;;;4.60;2.70;;;35.50;35.50;;;;;;5112574;27;20761;-84
2022/07/19 10:26:38;;;;;;;5.45;2.72;;;35.60;36.70;;;;;;5113917;27;20272;-84
2022/07/19 10:29:14;;;;;;;4.78;2.40;;;35.60;36.80;;;;;;5113318;27;20177;-85
2022/07/19 10:31:40;;;;;;;3.03;2.35;;;35.60;36.70;;;;;;5115178;27;20180;-85
2022/07/19 10:34:09;;;;;;;4.38;2.47;;;35.60;37.10;;;;;;5112923;27;20174;-85
2022/07/19 10:36:49;;;;;;;3.70;2.50;;;35.50;36.20;;;;;;5131924;27;20193;-85
2022/07/19 10:39:20;;;;;;;3.53;2.20;;;35.50;36.40;;;;;;5133337;27;20623;-84
2022/07/19 10:42:08;;;;;;;6.22;2.70;;;35.50;35.40;;;;;;5131583;27;20185;-85
2022/07/19 10:44:53;;;;;;;5.72;2.78;;;35.70;34.00;;;;;;5113161;27;20234;-85
2022/07/19 10:47:19;;;;;;;5.88;2.70;;;35.80;35.10;;;;;;5112772;27;20181;-84
2022/07/19 10:49:46;;;;;;;4.90;2.40;;;35.70;35.00;;;;;;5130895;27;20162;-84
2022/07/19 10:52:27;;;;;;;3.85;2.35;;;35.70;34.80;;;;;;5112684;27;20170;-84
2022/07/19 10:55:17;;;;;;;3.88;2.67;;;35.60;35.40;;;;;;5113216;27;20257;-85
2022/07/19 10:58:05;;;;;;;3.47;2.40;;;35.50;35.70;;;;;;5117272;27;20396;-85
2022/07/19 11:00:42;;;;;;;5.82;2.65;;;35.40;36.30;;;;;;5097829;27;20178;-85
2022/07/19 11:03:23;;;;;;;2.95;2.20;;;35.30;36.60;;;;;;5112404;27;20570;-84
2022/07/19 11:05:54;;;;;;;3.78;2.33;;;35.30;36.80;;;;;;5113474;27;20381;-84
2022/07/19 11:08:36;;;;;;;3.30;2.45;;;35.20;36.50;;;;;;5111900;27;20166;-85
2022/07/19 11:11:10;;;;;;;4.53;2.47;;;35.20;37.00;;;;;;5113216;27;20169;-85
2022/07/19 11:13:38;;;;;;;2.97;2.45;;;35.20;37.10;;;;;;5113884;27;20535;-84
2022/07/19 11:16:05;;;;;;;3.20;2.30;;;35.20;36.40;;;;;;5113653;27;20213;-84
2022/07/19 11:18:34;;;;;;;2.88;2.40;;;35.20;36.90;;;;;;5113539;27;20368;-85
2022/07/19 11:21:02;;;;;;;2.83;2.55;;;35.20;37.20;;;;;;5111890;27;20269;-84
2022/07/19 11:23:34;;;;;;;4.40;2.33;;;35.20;37.30;;;;;;5112043;27;20166;-85
2022/07/19 11:26:08;;;;;;;2.88;2.50;;;35.10;36.50;;;;;;5111558;27;20433;-84
2022/07/19 11:28:35;;;;;;;5.47;2.60;;;35.20;36.30;;;;;;5113200;27;20191;-85
2022/07/19 11:31:16;;;;;;;3.58;2.40;;;35.20;36.60;;;;;;5113218;27;20242;-85
2022/07/19 11:33:42;;;;;;;3.53;2.42;;;35.20;36.00;;;;;;5111901;27;20169;-85
2022/07/19 11:36:09;;;;;;;3.78;2.58;;;35.20;36.50;;;;;;5111430;27;20264;-85
2022/07/19 11:38:46;;;;;;;2.60;2.40;;;35.20;36.70;;;;;;5129689;27;20157;-85
2022/07/19 11:41:38;;;;;;;4.00;2.40;;;35.10;36.90;;;;;;5110838;27;20265;-84
2022/07/19 11:44:10;;;;;;;3.78;2.50;;;35.00;36.10;;;;;;5129278;27;20589;-84
2022/07/19 11:46:40;;;;;;;3.55;2.60;;;35.10;35.20;;;;;;5129145;27;20548;-85
2022/07/19 11:49:09;;;;;;;7.45;2.60;;;35.20;34.50;;;;;;5110505;27;20234;-84
2022/07/19 11:51:35;;;;;;;5.78;2.22;;;35.30;33.80;;;;;;5112434;27;20162;-85
2022/07/19 11:54:03;;;;;;;4.15;2.45;;;35.40;34.50;;;;;;5129302;27;20169;-84
2022/07/19 11:56:31;;;;;;;2.88;2.30;;;35.40;34.50;;;;;;5111072;27;20166;-84
2022/07/19 11:59:00;;;;;;;3.25;2.30;;;35.30;35.00;;;;;;5111371;27;20447;-85
2022/07/19 12:01:31;;;;;;;2.72;2.45;;;35.20;35.80;;;;;;5112867;27;20275;-85
2022/07/19 12:04:06;;;;;;;4.10;2.60;;;35.20;36.20;;;;;;5112968;27;20169;-87
2022/07/19 12:06:39;;;;;;;3.72;2.67;;;35.10;35.40;;;;;;5111915;27;20561;-87
2022/07/19 12:09:07;;;;;;;4.45;2.80;;;35.00;36.10;;;;;;5130582;27;20230;-87
2022/07/19 12:11:43;;;;;;;2.67;2.47;;;35.00;35.40;;;;;;5111856;27;20166;-84
2022/07/19 12:14:31;;;;;;;2.63;2.30;;;34.90;35.80;;;;;;5110288;27;20176;-85
2022/07/19 12:17:16;;;;;;;3.58;2.20;;;34.90;36.70;;;;;;5111946;27;20204;-85
2022/07/19 12:19:47;;;;;;;4.47;2.60;;;34.90;37.00;;;;;;5128335;27;20162;-84
2022/07/19 12:22:48;;;;;;;3.63;2.50;;;34.90;36.20;;;;;;5128332;27;20176;-85
2022/07/19 12:25:14;;;;;;;4.78;2.60;;;34.90;36.70;;;;;;5026171;28;20278;-84
2022/07/19 12:27:40;;;;;;;4.80;2.53;;;34.80;36.30;;;;;;5091122;28;20268;-84
2022/07/19 12:30:17;;;;;;;3.63;2.70;;;34.80;35.20;;;;;;5129291;27;20197;-85
2022/07/19 12:32:46;;;;;;;2.80;2.40;;;34.90;35.50;;;;;;5111705;27;20173;-84
2022/07/19 12:35:14;;;;;;;2.45;2.25;;;34.90;36.00;;;;;;5111776;27;20201;-84
2022/07/19 12:37:45;;;;;;;4.68;3.05;;;34.90;35.50;;;;;;5110937;27;20166;-85
2022/07/19 12:40:19;;;;;;;4.60;2.65;;;34.90;36.20;;;;;;5111610;28;20165;-84
2022/07/19 12:42:45;;;;;;;3.58;2.50;;;34.90;35.10;;;;;;5112070;28;20189;-85
2022/07/19 12:45:17;;;;;;;4.18;2.85;;;34.90;35.60;;;;;;5128915;27;20170;-85
2022/07/19 12:47:44;;;;;;;4.80;2.50;;;34.90;36.10;;;;;;5129230;28;20162;-84
2022/07/19 12:50:23;;;;;;;3.35;2.42;;;34.80;36.30;;;;;;5112779;28;20173;-85
2022/07/19 12:52:51;;;;;;;6.47;2.80;;;34.80;36.50;;;;;;5130269;28;20737;-85
2022/07/19 12:55:17;;;;;;;5.97;2.50;;;34.80;36.70;;;;;;5112143;28;20273;-85
2022/07/19 12:57:43;;;;;;;4.35;2.40;;;34.80;36.00;;;;;;5110287;28;20176;-84
2022/07/19 13:00:09;;;;;;;3.80;2.50;;;34.80;36.40;;;;;;5127789;28;20470;-85
2022/07/19 13:02:35;;;;;;;10.27;2.95;;;34.70;36.50;;;;;;5129221;28;20207;-84
2022/07/19 13:05:01;;;;;;;3.47;2.60;;;34.80;34.80;;;;;;5109775;28;20404;-84
2022/07/19 13:07:27;;;;;;;2.67;2.33;;;34.80;35.10;;;;;;5110468;28;20655;-84
2022/07/19 13:09:52;;;;;;;5.05;2.40;;;34.80;34.20;;;;;;5114392;27;20655;-85
2022/07/19 13:12:18;;;;;;;4.43;2.70;;;34.80;35.70;;;;;;5115537;27;20177;-84
2022/07/19 13:14:44;;;;;;;3.90;2.55;;;34.80;35.90;;;;;;5115292;27;20201;-85
2022/07/19 13:17:10;;;;;;;3.97;2.60;;;34.80;35.00;;;;;;5115047;27;20408;-85
2022/07/19 13:19:38;;;;;;;4.20;2.20;;;34.80;34.60;;;;;;5114220;27;20218;-85
2022/07/19 13:22:04;;;;;;;4.95;2.70;;;34.80;35.40;;;;;;5113862;27;20162;-83
2022/07/19 13:24:30;;;;;;;6.28;2.65;;;34.90;33.80;;;;;;5132445;27;20201;-85